sensor_id;sensor_type;location;lat;lon;timestamp;P1;durP1;ratioP1;P2;durP2;ratioP2
1180;SDS011;579;52.046;8.532;2023-04-02T00:01:37;0.50;;;0.50;;
1180;SDS011;579;52.046;8.532;2023-04-02T00:04:06;1.10;;;1.10;;
1180;SDS011;579;52.046;8.532;2023-04-02T00:11:51;0.68;;;0.68;;
1180;SDS011;579;52.046;8.532;2023-04-02T00:14:23;0.90;;;0.90;;
1180;SDS011;579;52.046;8.532;2023-04-02T00:16:53;0.85;;;0.85;;
1180;SDS011;579;52.046;8.532;2023-04-02T00:19:23;0.93;;;0.93;;
1180;SDS011;579;52.046;8.532;2023-04-02T00:21:55;1.23;;;1.23;;
1180;SDS011;579;52.046;8.532;2023-04-02T00:24:22;1.20;;;1.20;;
1180;SDS011;579;52.046;8.532;2023-04-02T00:26:49;1.50;;;1.50;;
1180;SDS011;579;52.046;8.532;2023-04-02T00:33:49;0.60;;;0.60;;
1180;SDS011;579;52.046;8.532;2023-04-02T00:36:17;0.60;;;0.60;;
1180;SDS011;579;52.046;8.532;2023-04-02T00:38:44;0.70;;;0.70;;
1180;SDS011;579;52.046;8.532;2023-04-02T00:41:12;0.55;;;0.55;;
1180;SDS011;579;52.046;8.532;2023-04-02T00:43:43;0.90;;;0.90;;
1180;SDS011;579;52.046;8.532;2023-04-02T00:46:13;0.43;;;0.43;;
1180;SDS011;579;52.046;8.532;2023-04-02T00:48:42;0.30;;;0.30;;
1180;SDS011;579;52.046;8.532;2023-04-02T00:56:23;0.30;;;0.30;;
1180;SDS011;579;52.046;8.532;2023-04-02T00:58:54;0.32;;;0.32;;
1180;SDS011;579;52.046;8.532;2023-04-02T01:01:22;0.28;;;0.28;;
1180;SDS011;579;52.046;8.532;2023-04-02T01:03:52;0.50;;;0.50;;
1180;SDS011;579;52.046;8.532;2023-04-02T01:06:22;0.40;;;0.40;;
1180;SDS011;579;52.046;8.532;2023-04-02T01:14:51;0.25;;;0.25;;
1180;SDS011;579;52.046;8.532;2023-04-02T01:17:31;0.30;;;0.30;;
1180;SDS011;579;52.046;8.532;2023-04-02T01:20:36;0.40;;;0.40;;
1180;SDS011;579;52.046;8.532;2023-04-02T01:23:34;0.40;;;0.40;;
1180;SDS011;579;52.046;8.532;2023-04-02T01:26:11;0.38;;;0.38;;
1180;SDS011;579;52.046;8.532;2023-04-02T01:28:50;0.20;;;0.20;;
1180;SDS011;579;52.046;8.532;2023-04-02T01:37:45;0.45;;;0.45;;
1180;SDS011;579;52.046;8.532;2023-04-02T01:40:24;0.30;;;0.30;;
1180;SDS011;579;52.046;8.532;2023-04-02T01:43:02;0.50;;;0.50;;
1180;SDS011;579;52.046;8.532;2023-04-02T01:45:40;0.40;;;0.40;;
1180;SDS011;579;52.046;8.532;2023-04-02T01:48:08;0.40;;;0.40;;
1180;SDS011;579;52.046;8.532;2023-04-02T01:50:40;0.50;;;0.50;;
1180;SDS011;579;52.046;8.532;2023-04-02T01:53:11;0.30;;;0.30;;
1180;SDS011;579;52.046;8.532;2023-04-02T02:00:46;0.30;;;0.30;;
1180;SDS011;579;52.046;8.532;2023-04-02T02:03:15;0.57;;;0.57;;
1180;SDS011;579;52.046;8.532;2023-04-02T02:05:43;0.40;;;0.40;;
1180;SDS011;579;52.046;8.532;2023-04-02T02:08:15;0.40;;;0.40;;
1180;SDS011;579;52.046;8.532;2023-04-02T02:10:54;0.52;;;0.52;;
1180;SDS011;579;52.046;8.532;2023-04-02T02:13:22;0.57;;;0.57;;
1180;SDS011;579;52.046;8.532;2023-04-02T02:15:50;0.85;;;0.85;;
1180;SDS011;579;52.046;8.532;2023-04-02T02:20:57;0.20;;;0.20;;
1180;SDS011;579;52.046;8.532;2023-04-02T02:23:28;0.20;;;0.20;;
1180;SDS011;579;52.046;8.532;2023-04-02T02:25:54;0.20;;;0.20;;
1180;SDS011;579;52.046;8.532;2023-04-02T02:28:22;0.30;;;0.30;;
1180;SDS011;579;52.046;8.532;2023-04-02T02:30:51;0.20;;;0.20;;
1180;SDS011;579;52.046;8.532;2023-04-02T02:33:21;0.20;;;0.20;;
1180;SDS011;579;52.046;8.532;2023-04-02T02:35:51;0.20;;;0.20;;
1180;SDS011;579;52.046;8.532;2023-04-02T02:43:33;0.30;;;0.30;;
1180;SDS011;579;52.046;8.532;2023-04-02T02:46:02;0.30;;;0.30;;
1180;SDS011;579;52.046;8.532;2023-04-02T02:48:32;0.30;;;0.30;;
1180;SDS011;579;52.046;8.532;2023-04-02T02:51:02;0.30;;;0.30;;
1180;SDS011;579;52.046;8.532;2023-04-02T02:53:35;0.63;;;0.63;;
1180;SDS011;579;52.046;8.532;2023-04-02T02:56:11;0.35;;;0.35;;
1180;SDS011;579;52.046;8.532;2023-04-02T03:05:00;0.60;;;0.60;;
1180;SDS011;579;52.046;8.532;2023-04-02T03:07:29;0.50;;;0.50;;
1180;SDS011;579;52.046;8.532;2023-04-02T03:09:58;0.38;;;0.38;;
1180;SDS011;579;52.046;8.532;2023-04-02T03:12:36;0.70;;;0.70;;
1180;SDS011;579;52.046;8.532;2023-04-02T03:15:14;0.80;;;0.80;;
1180;SDS011;579;52.046;8.532;2023-04-02T03:17:47;0.60;;;0.60;;
1180;SDS011;579;52.046;8.532;2023-04-02T03:20:21;0.50;;;0.50;;
1180;SDS011;579;52.046;8.532;2023-04-02T03:28:03;0.40;;;0.40;;
1180;SDS011;579;52.046;8.532;2023-04-02T03:30:37;0.60;;;0.60;;
1180;SDS011;579;52.046;8.532;2023-04-02T03:33:11;0.40;;;0.40;;
1180;SDS011;579;52.046;8.532;2023-04-02T03:35:42;0.40;;;0.40;;
1180;SDS011;579;52.046;8.532;2023-04-02T03:38:14;0.35;;;0.35;;
1180;SDS011;579;52.046;8.532;2023-04-02T03:40:43;0.40;;;0.40;;
1180;SDS011;579;52.046;8.532;2023-04-02T03:43:23;0.30;;;0.30;;
1180;SDS011;579;52.046;8.532;2023-04-02T03:50:59;0.45;;;0.45;;
1180;SDS011;579;52.046;8.532;2023-04-02T03:53:30;0.43;;;0.43;;
1180;SDS011;579;52.046;8.532;2023-04-02T03:55:57;0.20;;;0.20;;
1180;SDS011;579;52.046;8.532;2023-04-02T03:58:26;0.10;;;0.10;;
1180;SDS011;579;52.046;8.532;2023-04-02T04:01:01;0.32;;;0.32;;
1180;SDS011;579;52.046;8.532;2023-04-02T04:03:35;0.50;;;0.50;;
1180;SDS011;579;52.046;8.532;2023-04-02T04:06:06;0.40;;;0.40;;
1180;SDS011;579;52.046;8.532;2023-04-02T04:13:42;0.50;;;0.50;;
1180;SDS011;579;52.046;8.532;2023-04-02T04:16:15;0.60;;;0.60;;
1180;SDS011;579;52.046;8.532;2023-04-02T04:18:48;0.45;;;0.45;;
1180;SDS011;579;52.046;8.532;2023-04-02T04:21:22;0.40;;;0.40;;
1180;SDS011;579;52.046;8.532;2023-04-02T04:23:54;0.50;;;0.50;;
1180;SDS011;579;52.046;8.532;2023-04-02T04:26:28;0.60;;;0.60;;
1180;SDS011;579;52.046;8.532;2023-04-02T04:31:45;0.40;;;0.40;;
1180;SDS011;579;52.046;8.532;2023-04-02T04:34:15;0.40;;;0.40;;
1180;SDS011;579;52.046;8.532;2023-04-02T04:36:48;0.68;;;0.68;;
1180;SDS011;579;52.046;8.532;2023-04-02T04:39:22;0.70;;;0.70;;
1180;SDS011;579;52.046;8.532;2023-04-02T04:41:56;0.65;;;0.65;;
1180;SDS011;579;52.046;8.532;2023-04-02T04:44:27;0.70;;;0.70;;
1180;SDS011;579;52.046;8.532;2023-04-02T04:47:06;0.88;;;0.88;;
1180;SDS011;579;52.046;8.532;2023-04-02T04:50:45;0.47;;;0.47;;
1180;SDS011;579;52.046;8.532;2023-04-02T04:53:15;0.30;;;0.30;;
1180;SDS011;579;52.046;8.532;2023-04-02T04:55:46;0.38;;;0.38;;
1180;SDS011;579;52.046;8.532;2023-04-02T04:58:16;0.40;;;0.40;;
1180;SDS011;579;52.046;8.532;2023-04-02T05:00:50;0.70;;;0.70;;
1180;SDS011;579;52.046;8.532;2023-04-02T05:03:27;0.40;;;0.40;;
1180;SDS011;579;52.046;8.532;2023-04-02T05:06:00;0.70;;;0.70;;
1180;SDS011;579;52.046;8.532;2023-04-02T05:13:41;0.40;;;0.40;;
1180;SDS011;579;52.046;8.532;2023-04-02T05:16:15;0.40;;;0.40;;
1180;SDS011;579;52.046;8.532;2023-04-02T05:18:48;1.02;;;1.02;;
1180;SDS011;579;52.046;8.532;2023-04-02T05:21:22;0.30;;;0.30;;
1180;SDS011;579;52.046;8.532;2023-04-02T05:23:53;0.40;;;0.40;;
1180;SDS011;579;52.046;8.532;2023-04-02T05:26:30;0.35;;;0.35;;
1180;SDS011;579;52.046;8.532;2023-04-02T05:33:20;0.30;;;0.30;;
1180;SDS011;579;52.046;8.532;2023-04-02T05:35:51;0.20;;;0.20;;
1180;SDS011;579;52.046;8.532;2023-04-02T05:38:24;0.10;;;0.10;;
1180;SDS011;579;52.046;8.532;2023-04-02T05:40:57;0.20;;;0.20;;
1180;SDS011;579;52.046;8.532;2023-04-02T05:43:28;0.20;;;0.20;;
1180;SDS011;579;52.046;8.532;2023-04-02T05:46:00;0.20;;;0.20;;
1180;SDS011;579;52.046;8.532;2023-04-02T05:53:20;0.20;;;0.20;;
1180;SDS011;579;52.046;8.532;2023-04-02T05:55:51;0.50;;;0.50;;
1180;SDS011;579;52.046;8.532;2023-04-02T05:58:24;0.30;;;0.30;;
1180;SDS011;579;52.046;8.532;2023-04-02T06:00:57;0.77;;;0.77;;
1180;SDS011;579;52.046;8.532;2023-04-02T06:03:34;0.65;;;0.65;;
1180;SDS011;579;52.046;8.532;2023-04-02T06:06:11;0.55;;;0.55;;
1180;SDS011;579;52.046;8.532;2023-04-02T06:08:46;0.65;;;0.65;;
1180;SDS011;579;52.046;8.532;2023-04-02T06:11:50;1.00;;;1.00;;
1180;SDS011;579;52.046;8.532;2023-04-02T06:14:21;1.10;;;1.10;;
1180;SDS011;579;52.046;8.532;2023-04-02T06:16:48;0.75;;;0.75;;
1180;SDS011;579;52.046;8.532;2023-04-02T06:19:16;0.88;;;0.88;;
1180;SDS011;579;52.046;8.532;2023-04-02T06:21:47;1.20;;;1.20;;
1180;SDS011;579;52.046;8.532;2023-04-02T06:24:16;0.85;;;0.85;;
1180;SDS011;579;52.046;8.532;2023-04-02T06:26:48;0.95;;;0.95;;
1180;SDS011;579;52.046;8.532;2023-04-02T06:34:25;1.70;;;1.70;;
1180;SDS011;579;52.046;8.532;2023-04-02T06:36:55;1.00;;;1.00;;
1180;SDS011;579;52.046;8.532;2023-04-02T06:39:24;1.45;;;1.45;;
1180;SDS011;579;52.046;8.532;2023-04-02T06:41:53;1.90;;;1.90;;
1180;SDS011;579;52.046;8.532;2023-04-02T06:44:26;1.83;;;1.83;;
1180;SDS011;579;52.046;8.532;2023-04-02T06:46:58;0.85;;;0.85;;
1180;SDS011;579;52.046;8.532;2023-04-02T06:52:12;0.40;;;0.40;;
1180;SDS011;579;52.046;8.532;2023-04-02T06:54:45;0.63;;;0.63;;
1180;SDS011;579;52.046;8.532;2023-04-02T06:57:12;0.80;;;0.80;;
1180;SDS011;579;52.046;8.532;2023-04-02T06:59:38;0.68;;;0.68;;
1180;SDS011;579;52.046;8.532;2023-04-02T07:02:12;0.68;;;0.68;;
1180;SDS011;579;52.046;8.532;2023-04-02T07:04:49;0.77;;;0.77;;
1180;SDS011;579;52.046;8.532;2023-04-02T07:07:16;0.90;;;0.90;;
1180;SDS011;579;52.046;8.532;2023-04-02T07:14:49;0.50;;;0.50;;
1180;SDS011;579;52.046;8.532;2023-04-02T07:17:15;0.40;;;0.40;;
1180;SDS011;579;52.046;8.532;2023-04-02T07:19:43;0.40;;;0.40;;
1180;SDS011;579;52.046;8.532;2023-04-02T07:22:13;0.20;;;0.20;;
1180;SDS011;579;52.046;8.532;2023-04-02T07:24:40;0.30;;;0.30;;
1180;SDS011;579;52.046;8.532;2023-04-02T07:27:07;0.30;;;0.30;;
1180;SDS011;579;52.046;8.532;2023-04-02T07:29:34;0.40;;;0.40;;
1180;SDS011;579;52.046;8.532;2023-04-02T07:35:47;1.25;;;1.25;;
1180;SDS011;579;52.046;8.532;2023-04-02T07:38:14;1.05;;;1.05;;
1180;SDS011;579;52.046;8.532;2023-04-02T07:40:40;1.33;;;1.33;;
1180;SDS011;579;52.046;8.532;2023-04-02T07:43:06;1.17;;;1.17;;
1180;SDS011;579;52.046;8.532;2023-04-02T07:45:33;1.13;;;1.13;;
1180;SDS011;579;52.046;8.532;2023-04-02T07:48:03;1.30;;;1.30;;
1180;SDS011;579;52.046;8.532;2023-04-02T07:50:30;1.27;;;1.27;;
1180;SDS011;579;52.046;8.532;2023-04-02T07:56:46;1.50;;;1.50;;
1180;SDS011;579;52.046;8.532;2023-04-02T07:59:12;1.20;;;1.20;;
1180;SDS011;579;52.046;8.532;2023-04-02T08:01:39;1.38;;;1.38;;
1180;SDS011;579;52.046;8.532;2023-04-02T08:04:08;1.85;;;1.85;;
1180;SDS011;579;52.046;8.532;2023-04-02T08:06:42;1.70;;;1.70;;
1180;SDS011;579;52.046;8.532;2023-04-02T08:09:09;1.75;;;1.75;;
1180;SDS011;579;52.046;8.532;2023-04-02T08:11:35;1.80;;;1.80;;
1180;SDS011;579;52.046;8.532;2023-04-02T08:17:17;1.05;;;1.05;;
1180;SDS011;579;52.046;8.532;2023-04-02T08:19:43;1.25;;;1.25;;
1180;SDS011;579;52.046;8.532;2023-04-02T08:22:10;1.20;;;1.20;;
1180;SDS011;579;52.046;8.532;2023-04-02T08:24:36;1.10;;;1.10;;
1180;SDS011;579;52.046;8.532;2023-04-02T08:27:03;1.25;;;1.25;;
1180;SDS011;579;52.046;8.532;2023-04-02T08:29:29;1.15;;;1.15;;
1180;SDS011;579;52.046;8.532;2023-04-02T08:31:56;0.50;;;0.50;;
1180;SDS011;579;52.046;8.532;2023-04-02T08:39:18;0.63;;;0.63;;
1180;SDS011;579;52.046;8.532;2023-04-02T08:41:46;0.50;;;0.50;;
1180;SDS011;579;52.046;8.532;2023-04-02T08:44:26;0.50;;;0.50;;
1180;SDS011;579;52.046;8.532;2023-04-02T08:47:06;0.45;;;0.45;;
1180;SDS011;579;52.046;8.532;2023-04-02T08:49:35;0.60;;;0.60;;
1180;SDS011;579;52.046;8.532;2023-04-02T08:52:04;0.50;;;0.50;;
1180;SDS011;579;52.046;8.532;2023-04-02T08:54:34;0.60;;;0.60;;
1180;SDS011;579;52.046;8.532;2023-04-02T09:01:22;0.47;;;0.47;;
1180;SDS011;579;52.046;8.532;2023-04-02T09:03:59;0.65;;;0.65;;
1180;SDS011;579;52.046;8.532;2023-04-02T09:06:27;0.70;;;0.70;;
1180;SDS011;579;52.046;8.532;2023-04-02T09:08:54;0.40;;;0.40;;
1180;SDS011;579;52.046;8.532;2023-04-02T09:11:22;0.60;;;0.60;;
1180;SDS011;579;52.046;8.532;2023-04-02T09:13:52;0.77;;;0.77;;
1180;SDS011;579;52.046;8.532;2023-04-02T09:16:25;0.60;;;0.60;;
1180;SDS011;579;52.046;8.532;2023-04-02T09:24:13;0.30;;;0.30;;
1180;SDS011;579;52.046;8.532;2023-04-02T09:26:43;1.40;;;1.40;;
1180;SDS011;579;52.046;8.532;2023-04-02T09:29:18;1.27;;;1.27;;
1180;SDS011;579;52.046;8.532;2023-04-02T09:32:08;0.90;;;0.90;;
1180;SDS011;579;52.046;8.532;2023-04-02T09:35:07;0.60;;;0.60;;
1180;SDS011;579;52.046;8.532;2023-04-02T09:37:40;1.00;;;1.00;;
1180;SDS011;579;52.046;8.532;2023-04-02T09:42:48;0.80;;;0.80;;
1180;SDS011;579;52.046;8.532;2023-04-02T09:45:18;0.70;;;0.70;;
1180;SDS011;579;52.046;8.532;2023-04-02T09:47:47;0.10;;;0.10;;
1180;SDS011;579;52.046;8.532;2023-04-02T09:50:23;0.20;;;0.20;;
1180;SDS011;579;52.046;8.532;2023-04-02T09:52:54;0.30;;;0.30;;
1180;SDS011;579;52.046;8.532;2023-04-02T09:55:23;0.32;;;0.32;;
1180;SDS011;579;52.046;8.532;2023-04-02T10:02:45;0.40;;;0.40;;
1180;SDS011;579;52.046;8.532;2023-04-02T10:05:27;0.30;;;0.30;;
1180;SDS011;579;52.046;8.532;2023-04-02T10:08:04;0.43;;;0.43;;
1180;SDS011;579;52.046;8.532;2023-04-02T10:10:41;0.40;;;0.40;;
1180;SDS011;579;52.046;8.532;2023-04-02T10:13:15;0.40;;;0.40;;
1180;SDS011;579;52.046;8.532;2023-04-02T10:15:49;0.40;;;0.40;;
1180;SDS011;579;52.046;8.532;2023-04-02T10:22:21;0.30;;;0.30;;
1180;SDS011;579;52.046;8.532;2023-04-02T10:24:48;0.75;;;0.75;;
1180;SDS011;579;52.046;8.532;2023-04-02T10:27:17;0.60;;;0.60;;
1180;SDS011;579;52.046;8.532;2023-04-02T10:29:53;0.50;;;0.50;;
1180;SDS011;579;52.046;8.532;2023-04-02T10:32:33;0.77;;;0.77;;
1180;SDS011;579;52.046;8.532;2023-04-02T10:35:08;0.50;;;0.50;;
1180;SDS011;579;52.046;8.532;2023-04-02T10:40:34;1.05;;;1.05;;
1180;SDS011;579;52.046;8.532;2023-04-02T10:43:25;0.75;;;0.75;;
1180;SDS011;579;52.046;8.532;2023-04-02T10:46:24;0.52;;;0.52;;
1180;SDS011;579;52.046;8.532;2023-04-02T10:49:01;0.65;;;0.65;;
1180;SDS011;579;52.046;8.532;2023-04-02T10:51:38;0.70;;;0.70;;
1180;SDS011;579;52.046;8.532;2023-04-02T10:54:16;0.50;;;0.50;;
1180;SDS011;579;52.046;8.532;2023-04-02T10:59:46;0.68;;;0.68;;
1180;SDS011;579;52.046;8.532;2023-04-02T11:02:31;0.50;;;0.50;;
1180;SDS011;579;52.046;8.532;2023-04-02T11:05:10;0.50;;;0.50;;
1180;SDS011;579;52.046;8.532;2023-04-02T11:07:45;0.40;;;0.40;;
1180;SDS011;579;52.046;8.532;2023-04-02T11:10:21;0.60;;;0.60;;
1180;SDS011;579;52.046;8.532;2023-04-02T11:12:51;0.50;;;0.50;;
1180;SDS011;579;52.046;8.532;2023-04-02T11:15:23;0.50;;;0.50;;
1180;SDS011;579;52.046;8.532;2023-04-02T11:22:19;0.40;;;0.40;;
1180;SDS011;579;52.046;8.532;2023-04-02T11:24:48;0.80;;;0.80;;
1180;SDS011;579;52.046;8.532;2023-04-02T11:27:20;0.65;;;0.65;;
1180;SDS011;579;52.046;8.532;2023-04-02T11:29:51;0.60;;;0.60;;
1180;SDS011;579;52.046;8.532;2023-04-02T11:32:30;0.70;;;0.70;;
1180;SDS011;579;52.046;8.532;2023-04-02T11:35:02;0.60;;;0.60;;
1180;SDS011;579;52.046;8.532;2023-04-02T11:40:45;0.70;;;0.70;;
1180;SDS011;579;52.046;8.532;2023-04-02T11:46:30;0.68;;;0.68;;
1180;SDS011;579;52.046;8.532;2023-04-02T11:52:02;0.90;;;0.90;;
1180;SDS011;579;52.046;8.532;2023-04-02T11:54:36;1.05;;;1.05;;
1180;SDS011;579;52.046;8.532;2023-04-02T11:59:44;1.50;;;1.50;;
1180;SDS011;579;52.046;8.532;2023-04-02T12:02:26;0.88;;;0.88;;
1180;SDS011;579;52.046;8.532;2023-04-02T12:05:02;1.27;;;1.27;;
1180;SDS011;579;52.046;8.532;2023-04-02T12:07:53;1.25;;;1.25;;
1180;SDS011;579;52.046;8.532;2023-04-02T12:10:32;0.93;;;0.93;;
1180;SDS011;579;52.046;8.532;2023-04-02T12:13:18;1.23;;;1.23;;
1180;SDS011;579;52.046;8.532;2023-04-02T12:20:18;0.68;;;0.68;;
1180;SDS011;579;52.046;8.532;2023-04-02T12:22:56;1.05;;;1.05;;
1180;SDS011;579;52.046;8.532;2023-04-02T12:25:25;1.15;;;1.15;;
1180;SDS011;579;52.046;8.532;2023-04-02T12:28:13;1.75;;;1.75;;
1180;SDS011;579;52.046;8.532;2023-04-02T12:30:42;2.50;;;2.50;;
1180;SDS011;579;52.046;8.532;2023-04-02T12:33:14;2.17;;;2.17;;
1180;SDS011;579;52.046;8.532;2023-04-02T12:38:21;0.80;;;0.80;;
1180;SDS011;579;52.046;8.532;2023-04-02T12:40:50;0.80;;;0.80;;
1180;SDS011;579;52.046;8.532;2023-04-02T12:43:24;0.80;;;0.80;;
1180;SDS011;579;52.046;8.532;2023-04-02T12:45:52;0.80;;;0.80;;
1180;SDS011;579;52.046;8.532;2023-04-02T12:48:20;0.70;;;0.70;;
1180;SDS011;579;52.046;8.532;2023-04-02T12:50:47;0.63;;;0.63;;
1180;SDS011;579;52.046;8.532;2023-04-02T12:53:18;0.73;;;0.73;;
1180;SDS011;579;52.046;8.532;2023-04-02T12:58:40;1.10;;;1.10;;
1180;SDS011;579;52.046;8.532;2023-04-02T13:01:11;1.13;;;1.13;;
1180;SDS011;579;52.046;8.532;2023-04-02T13:03:42;1.55;;;1.55;;
1180;SDS011;579;52.046;8.532;2023-04-02T13:06:17;1.00;;;1.00;;
1180;SDS011;579;52.046;8.532;2023-04-02T13:08:48;0.90;;;0.90;;
1180;SDS011;579;52.046;8.532;2023-04-02T13:11:15;1.02;;;1.02;;
1180;SDS011;579;52.046;8.532;2023-04-02T13:13:42;0.80;;;0.80;;
1180;SDS011;579;52.046;8.532;2023-04-02T13:21:24;0.38;;;0.38;;
1180;SDS011;579;52.046;8.532;2023-04-02T13:23:52;0.70;;;0.70;;
1180;SDS011;579;52.046;8.532;2023-04-02T13:26:20;0.90;;;0.90;;
1180;SDS011;579;52.046;8.532;2023-04-02T13:28:56;0.52;;;0.52;;
1180;SDS011;579;52.046;8.532;2023-04-02T13:31:25;0.43;;;0.43;;
1180;SDS011;579;52.046;8.532;2023-04-02T13:33:52;1.05;;;1.05;;
1180;SDS011;579;52.046;8.532;2023-04-02T13:39:05;1.00;;;1.00;;
1180;SDS011;579;52.046;8.532;2023-04-02T13:41:32;1.52;;;1.52;;
1180;SDS011;579;52.046;8.532;2023-04-02T13:44:04;0.60;;;0.60;;
1180;SDS011;579;52.046;8.532;2023-04-02T13:46:31;0.50;;;0.50;;
1180;SDS011;579;52.046;8.532;2023-04-02T13:48:59;0.68;;;0.68;;
1180;SDS011;579;52.046;8.532;2023-04-02T13:51:26;0.55;;;0.55;;
1180;SDS011;579;52.046;8.532;2023-04-02T13:54:00;0.82;;;0.82;;
1180;SDS011;579;52.046;8.532;2023-04-02T14:00:28;1.20;;;1.20;;
1180;SDS011;579;52.046;8.532;2023-04-02T14:02:57;0.85;;;0.85;;
1180;SDS011;579;52.046;8.532;2023-04-02T14:05:31;0.70;;;0.70;;
1180;SDS011;579;52.046;8.532;2023-04-02T14:08:06;1.27;;;1.27;;
1180;SDS011;579;52.046;8.532;2023-04-02T14:10:43;0.77;;;0.77;;
1180;SDS011;579;52.046;8.532;2023-04-02T14:20:24;0.52;;;0.52;;
1180;SDS011;579;52.046;8.532;2023-04-02T14:23:05;0.32;;;0.32;;
1180;SDS011;579;52.046;8.532;2023-04-02T14:25:48;0.93;;;0.93;;
1180;SDS011;579;52.046;8.532;2023-04-02T14:28:23;0.70;;;0.70;;
1180;SDS011;579;52.046;8.532;2023-04-02T14:31:05;1.20;;;1.20;;
1180;SDS011;579;52.046;8.532;2023-04-02T14:33:44;0.88;;;0.88;;
1180;SDS011;579;52.046;8.532;2023-04-02T14:38:58;0.30;;;0.30;;
1180;SDS011;579;52.046;8.532;2023-04-02T14:41:32;0.35;;;0.35;;
1180;SDS011;579;52.046;8.532;2023-04-02T14:44:07;0.40;;;0.40;;
1180;SDS011;579;52.046;8.532;2023-04-02T14:46:36;0.30;;;0.30;;
1180;SDS011;579;52.046;8.532;2023-04-02T14:49:05;0.32;;;0.32;;
1180;SDS011;579;52.046;8.532;2023-04-02T14:51:44;0.30;;;0.30;;
1180;SDS011;579;52.046;8.532;2023-04-02T14:54:16;0.38;;;0.38;;
1180;SDS011;579;52.046;8.532;2023-04-02T14:57:22;0.47;;;0.47;;
1180;SDS011;579;52.046;8.532;2023-04-02T14:59:52;0.20;;;0.20;;
1180;SDS011;579;52.046;8.532;2023-04-02T15:02:28;0.30;;;0.30;;
1180;SDS011;579;52.046;8.532;2023-04-02T15:05:05;0.53;;;0.53;;
1180;SDS011;579;52.046;8.532;2023-04-02T15:07:42;0.40;;;0.40;;
1180;SDS011;579;52.046;8.532;2023-04-02T15:10:16;0.33;;;0.33;;
1180;SDS011;579;52.046;8.532;2023-04-02T15:17:21;0.30;;;0.30;;
1180;SDS011;579;52.046;8.532;2023-04-02T15:19:49;0.30;;;0.30;;
1180;SDS011;579;52.046;8.532;2023-04-02T15:22:32;0.60;;;0.60;;
1180;SDS011;579;52.046;8.532;2023-04-02T15:25:09;0.50;;;0.50;;
1180;SDS011;579;52.046;8.532;2023-04-02T15:27:50;0.52;;;0.52;;
1180;SDS011;579;52.046;8.532;2023-04-02T15:30:26;0.40;;;0.40;;
1180;SDS011;579;52.046;8.532;2023-04-02T15:35:51;0.30;;;0.30;;
1180;SDS011;579;52.046;8.532;2023-04-02T15:38:28;0.30;;;0.30;;
1180;SDS011;579;52.046;8.532;2023-04-02T15:41:03;0.28;;;0.28;;
1180;SDS011;579;52.046;8.532;2023-04-02T15:43:40;0.32;;;0.32;;
1180;SDS011;579;52.046;8.532;2023-04-02T15:46:15;0.20;;;0.20;;
1180;SDS011;579;52.046;8.532;2023-04-02T15:48:48;0.30;;;0.30;;
1180;SDS011;579;52.046;8.532;2023-04-02T15:54:24;0.15;;;0.15;;
1180;SDS011;579;52.046;8.532;2023-04-02T15:57:23;0.20;;;0.20;;
1180;SDS011;579;52.046;8.532;2023-04-02T16:00:26;0.47;;;0.47;;
1180;SDS011;579;52.046;8.532;2023-04-02T16:03:00;0.30;;;0.30;;
1180;SDS011;579;52.046;8.532;2023-04-02T16:05:59;0.20;;;0.20;;
1180;SDS011;579;52.046;8.532;2023-04-02T16:08:46;0.20;;;0.20;;
1180;SDS011;579;52.046;8.532;2023-04-02T16:15:15;0.10;;;0.10;;
1180;SDS011;579;52.046;8.532;2023-04-02T16:17:48;0.10;;;0.10;;
1180;SDS011;579;52.046;8.532;2023-04-02T16:20:21;0.10;;;0.10;;
1180;SDS011;579;52.046;8.532;2023-04-02T16:22:51;0.10;;;0.10;;
1180;SDS011;579;52.046;8.532;2023-04-02T16:25:23;0.10;;;0.10;;
1180;SDS011;579;52.046;8.532;2023-04-02T16:27:55;0.10;;;0.10;;
1180;SDS011;579;52.046;8.532;2023-04-02T16:36:52;0.10;;;0.10;;
1180;SDS011;579;52.046;8.532;2023-04-02T16:39:29;0.10;;;0.10;;
1180;SDS011;579;52.046;8.532;2023-04-02T16:42:03;0.10;;;0.10;;
1180;SDS011;579;52.046;8.532;2023-04-02T16:44:42;0.10;;;0.10;;
1180;SDS011;579;52.046;8.532;2023-04-02T16:47:26;0.10;;;0.10;;
1180;SDS011;579;52.046;8.532;2023-04-02T16:50:11;0.10;;;0.10;;
1180;SDS011;579;52.046;8.532;2023-04-02T16:55:56;0.10;;;0.10;;
1180;SDS011;579;52.046;8.532;2023-04-02T16:58:40;0.10;;;0.10;;
1180;SDS011;579;52.046;8.532;2023-04-02T17:01:15;0.10;;;0.10;;
1180;SDS011;579;52.046;8.532;2023-04-02T17:04:04;0.15;;;0.15;;
1180;SDS011;579;52.046;8.532;2023-04-02T17:06:56;0.10;;;0.10;;
1180;SDS011;579;52.046;8.532;2023-04-02T17:09:32;0.10;;;0.10;;
1180;SDS011;579;52.046;8.532;2023-04-02T17:16:35;0.10;;;0.10;;
1180;SDS011;579;52.046;8.532;2023-04-02T17:19:08;0.00;;;0.00;;
1180;SDS011;579;52.046;8.532;2023-04-02T17:21:36;0.10;;;0.10;;
1180;SDS011;579;52.046;8.532;2023-04-02T17:24:14;0.10;;;0.10;;
1180;SDS011;579;52.046;8.532;2023-04-02T17:26:49;0.10;;;0.10;;
1180;SDS011;579;52.046;8.532;2023-04-02T17:29:19;0.10;;;0.10;;
1180;SDS011;579;52.046;8.532;2023-04-02T17:31:52;0.10;;;0.10;;
1180;SDS011;579;52.046;8.532;2023-04-02T17:36:52;0.10;;;0.10;;
1180;SDS011;579;52.046;8.532;2023-04-02T17:39:30;0.10;;;0.10;;
1180;SDS011;579;52.046;8.532;2023-04-02T17:42:05;0.10;;;0.10;;
1180;SDS011;579;52.046;8.532;2023-04-02T17:44:51;0.10;;;0.10;;
1180;SDS011;579;52.046;8.532;2023-04-02T17:47:29;0.10;;;0.10;;
1180;SDS011;579;52.046;8.532;2023-04-02T17:50:14;0.10;;;0.10;;
1180;SDS011;579;52.046;8.532;2023-04-02T17:56:55;0.10;;;0.10;;
1180;SDS011;579;52.046;8.532;2023-04-02T17:59:44;0.10;;;0.10;;
1180;SDS011;579;52.046;8.532;2023-04-02T18:02:38;0.40;;;0.40;;
1180;SDS011;579;52.046;8.532;2023-04-02T18:05:20;0.00;;;0.00;;
1180;SDS011;579;52.046;8.532;2023-04-02T18:07:55;0.00;;;0.00;;
1180;SDS011;579;52.046;8.532;2023-04-02T18:10:34;0.00;;;0.00;;
1180;SDS011;579;52.046;8.532;2023-04-02T18:17:23;0.05;;;0.05;;
1180;SDS011;579;52.046;8.532;2023-04-02T18:19:59;0.00;;;0.00;;
1180;SDS011;579;52.046;8.532;2023-04-02T18:22:36;0.00;;;0.00;;
1180;SDS011;579;52.046;8.532;2023-04-02T18:25:23;0.00;;;0.00;;
1180;SDS011;579;52.046;8.532;2023-04-02T18:28:08;0.00;;;0.00;;
1180;SDS011;579;52.046;8.532;2023-04-02T18:30:59;0.00;;;0.00;;
1180;SDS011;579;52.046;8.532;2023-04-02T18:37:58;0.00;;;0.00;;
1180;SDS011;579;52.046;8.532;2023-04-02T18:40:41;0.00;;;0.00;;
1180;SDS011;579;52.046;8.532;2023-04-02T18:43:28;0.00;;;0.00;;
1180;SDS011;579;52.046;8.532;2023-04-02T18:46:19;0.00;;;0.00;;
1180;SDS011;579;52.046;8.532;2023-04-02T18:48:54;0.00;;;0.00;;
1180;SDS011;579;52.046;8.532;2023-04-02T18:51:24;0.00;;;0.00;;
1180;SDS011;579;52.046;8.532;2023-04-02T18:56:33;0.00;;;0.00;;
1180;SDS011;579;52.046;8.532;2023-04-02T18:59:05;0.00;;;0.00;;
1180;SDS011;579;52.046;8.532;2023-04-02T19:01:53;0.00;;;0.00;;
1180;SDS011;579;52.046;8.532;2023-04-02T19:04:24;0.00;;;0.00;;
1180;SDS011;579;52.046;8.532;2023-04-02T19:06:55;0.00;;;0.00;;
1180;SDS011;579;52.046;8.532;2023-04-02T19:09:29;0.00;;;0.00;;
1180;SDS011;579;52.046;8.532;2023-04-02T19:11:59;0.00;;;0.00;;
1180;SDS011;579;52.046;8.532;2023-04-02T19:19:51;0.00;;;0.00;;
1180;SDS011;579;52.046;8.532;2023-04-02T19:22:29;0.00;;;0.00;;
1180;SDS011;579;52.046;8.532;2023-04-02T19:25:18;0.00;;;0.00;;
1180;SDS011;579;52.046;8.532;2023-04-02T19:28:02;0.00;;;0.00;;
1180;SDS011;579;52.046;8.532;2023-04-02T19:33:39;0.00;;;0.00;;
1180;SDS011;579;52.046;8.532;2023-04-02T19:36:43;0.00;;;0.00;;
1180;SDS011;579;52.046;8.532;2023-04-02T19:42:16;0.00;;;0.00;;
1180;SDS011;579;52.046;8.532;2023-04-02T19:44:55;0.00;;;0.00;;
1180;SDS011;579;52.046;8.532;2023-04-02T19:47:21;0.10;;;0.10;;
1180;SDS011;579;52.046;8.532;2023-04-02T19:49:48;0.10;;;0.10;;
1180;SDS011;579;52.046;8.532;2023-04-02T19:52:16;0.10;;;0.10;;
1180;SDS011;579;52.046;8.532;2023-04-02T19:59:30;0.10;;;0.10;;
1180;SDS011;579;52.046;8.532;2023-04-02T20:01:57;0.10;;;0.10;;
1180;SDS011;579;52.046;8.532;2023-04-02T20:04:23;0.10;;;0.10;;
1180;SDS011;579;52.046;8.532;2023-04-02T20:06:50;0.10;;;0.10;;
1180;SDS011;579;52.046;8.532;2023-04-02T20:09:16;0.10;;;0.10;;
1180;SDS011;579;52.046;8.532;2023-04-02T20:11:45;0.10;;;0.10;;
1180;SDS011;579;52.046;8.532;2023-04-02T20:14:11;0.10;;;0.10;;
1180;SDS011;579;52.046;8.532;2023-04-02T20:17:28;0.10;;;0.10;;